sensor_id;sensor_type;location;lat;lon;timestamp;pressure;altitude;pressure_sealevel;temperature;humidity
30730;BME280;17476;48.458;7.928;2023-03-22T00:01:34;99834.53;;;11.28;82.59
30730;BME280;17476;48.458;7.928;2023-03-22T00:04:01;99835.16;;;11.30;82.77
30730;BME280;17476;48.458;7.928;2023-03-22T00:06:27;99833.84;;;11.34;83.05
30730;BME280;17476;48.458;7.928;2023-03-22T00:08:53;99836.56;;;11.18;82.71
30730;BME280;17476;48.458;7.928;2023-03-22T00:11:21;99835.06;;;11.15;83.07
30730;BME280;17476;48.458;7.928;2023-03-22T00:13:48;99833.97;;;11.02;83.30
30730;BME280;17476;48.458;7.928;2023-03-22T00:16:17;99838.09;;;10.96;83.52
30730;BME280;17476;48.458;7.928;2023-03-22T00:18:43;99836.00;;;10.83;83.96
30730;BME280;17476;48.458;7.928;2023-03-22T00:21:12;99835.38;;;10.73;84.29
30730;BME280;17476;48.458;7.928;2023-03-22T00:23:39;99840.78;;;10.72;84.45
30730;BME280;17476;48.458;7.928;2023-03-22T00:26:06;99833.91;;;10.71;83.83
30730;BME280;17476;48.458;7.928;2023-03-22T00:28:33;99829.00;;;10.68;84.56
30730;BME280;17476;48.458;7.928;2023-03-22T00:31:00;99835.72;;;10.62;84.73
30730;BME280;17476;48.458;7.928;2023-03-22T00:33:28;99831.31;;;10.62;84.85
30730;BME280;17476;48.458;7.928;2023-03-22T00:36:01;99825.78;;;10.57;83.46
30730;BME280;17476;48.458;7.928;2023-03-22T00:38:28;99829.06;;;10.43;84.85
30730;BME280;17476;48.458;7.928;2023-03-22T00:41:14;99823.50;;;10.38;85.51
30730;BME280;17476;48.458;7.928;2023-03-22T00:43:41;99812.56;;;10.34;84.30
30730;BME280;17476;48.458;7.928;2023-03-22T00:46:09;99811.09;;;10.32;85.07
30730;BME280;17476;48.458;7.928;2023-03-22T00:48:35;99811.09;;;10.32;84.01
30730;BME280;17476;48.458;7.928;2023-03-22T00:51:02;99806.53;;;10.26;84.60
30730;BME280;17476;48.458;7.928;2023-03-22T00:53:28;99804.53;;;10.20;84.95
30730;BME280;17476;48.458;7.928;2023-03-22T00:55:55;99810.41;;;10.13;86.33
30730;BME280;17476;48.458;7.928;2023-03-22T00:58:21;99813.03;;;10.05;86.45
30730;BME280;17476;48.458;7.928;2023-03-22T01:00:47;99804.03;;;10.00;87.22
30730;BME280;17476;48.458;7.928;2023-03-22T01:03:13;99810.09;;;10.00;87.26
30730;BME280;17476;48.458;7.928;2023-03-22T01:05:42;99800.63;;;9.99;85.10
30730;BME280;17476;48.458;7.928;2023-03-22T01:08:09;99803.22;;;9.91;85.83
30730;BME280;17476;48.458;7.928;2023-03-22T01:10:39;99794.25;;;9.85;86.84
30730;BME280;17476;48.458;7.928;2023-03-22T01:13:06;99798.19;;;9.90;86.60
30730;BME280;17476;48.458;7.928;2023-03-22T01:15:33;99794.25;;;9.85;85.91
30730;BME280;17476;48.458;7.928;2023-03-22T01:17:59;99781.84;;;9.79;86.01
30730;BME280;17476;48.458;7.928;2023-03-22T01:20:25;99782.31;;;9.75;86.57
30730;BME280;17476;48.458;7.928;2023-03-22T01:22:51;99780.84;;;9.72;87.38
30730;BME280;17476;48.458;7.928;2023-03-22T01:25:17;99778.41;;;9.71;88.15
30730;BME280;17476;48.458;7.928;2023-03-22T01:27:43;99771.56;;;9.78;86.97
30730;BME280;17476;48.458;7.928;2023-03-22T01:30:10;99766.63;;;9.75;87.20
30730;BME280;17476;48.458;7.928;2023-03-22T01:32:37;99766.63;;;9.67;87.61
30730;BME280;17476;48.458;7.928;2023-03-22T01:35:07;99762.75;;;9.71;86.02
30730;BME280;17476;48.458;7.928;2023-03-22T01:37:33;99765.66;;;9.60;87.75
30730;BME280;17476;48.458;7.928;2023-03-22T01:39:59;99768.91;;;9.62;86.44
30730;BME280;17476;48.458;7.928;2023-03-22T01:42:26;99774.47;;;9.67;86.63
30730;BME280;17476;48.458;7.928;2023-03-22T01:47:51;99766.63;;;9.67;86.19
30730;BME280;17476;48.458;7.928;2023-03-22T01:50:20;99758.63;;;9.60;86.67
30730;BME280;17476;48.458;7.928;2023-03-22T01:52:48;99765.66;;;9.60;86.79
30730;BME280;17476;48.458;7.928;2023-03-22T01:55:15;99761.06;;;9.53;86.49
30730;BME280;17476;48.458;7.928;2023-03-22T01:57:43;99758.97;;;9.49;87.24
30730;BME280;17476;48.458;7.928;2023-03-22T02:00:12;99760.09;;;9.46;86.67
30730;BME280;17476;48.458;7.928;2023-03-22T02:02:42;99752.25;;;9.38;86.66
30730;BME280;17476;48.458;7.928;2023-03-22T02:05:09;99755.03;;;9.37;88.19
30730;BME280;17476;48.458;7.928;2023-03-22T02:07:38;99749.63;;;9.38;87.57
30730;BME280;17476;48.458;7.928;2023-03-22T02:10:18;99751.91;;;9.41;86.93
30730;BME280;17476;48.458;7.928;2023-03-22T02:13:07;99750.63;;;9.37;87.10
30730;BME280;17476;48.458;7.928;2023-03-22T02:16:21;99755.34;;;9.34;86.60
30730;BME280;17476;48.458;7.928;2023-03-22T02:19:05;99748.47;;;9.33;86.47
30730;BME280;17476;48.458;7.928;2023-03-22T02:25:32;99741.31;;;9.35;86.72
30730;BME280;17476;48.458;7.928;2023-03-22T02:46:38;99723.63;;;9.04;88.09
30730;BME280;17476;48.458;7.928;2023-03-22T02:52:14;99736.88;;;9.19;88.48
30730;BME280;17476;48.458;7.928;2023-03-22T02:57:36;99742.56;;;9.14;87.73
30730;BME280;17476;48.458;7.928;2023-03-22T03:00:06;99744.34;;;9.14;87.61
30730;BME280;17476;48.458;7.928;2023-03-22T03:02:43;99738.31;;;9.05;88.85
30730;BME280;17476;48.458;7.928;2023-03-22T03:05:11;99738.97;;;9.07;87.53
30730;BME280;17476;48.458;7.928;2023-03-22T03:07:38;99737.13;;;8.99;88.59
30730;BME280;17476;48.458;7.928;2023-03-22T03:10:07;99737.00;;;9.01;88.75
30730;BME280;17476;48.458;7.928;2023-03-22T03:12:33;99738.31;;;9.13;87.82
30730;BME280;17476;48.458;7.928;2023-03-22T03:14:59;99740.13;;;9.13;88.08
30730;BME280;17476;48.458;7.928;2023-03-22T03:29:00;99727.25;;;9.11;87.60
30730;BME280;17476;48.458;7.928;2023-03-22T03:34:50;99731.00;;;9.09;88.14
30730;BME280;17476;48.458;7.928;2023-03-22T03:37:25;99722.31;;;9.00;88.21
30730;BME280;17476;48.458;7.928;2023-03-22T03:40:02;99734.41;;;9.09;87.86
30730;BME280;17476;48.458;7.928;2023-03-22T03:42:30;99730.66;;;9.03;88.28
30730;BME280;17476;48.458;7.928;2023-03-22T03:44:57;99726.41;;;9.02;87.82
30730;BME280;17476;48.458;7.928;2023-03-22T03:47:24;99726.91;;;9.06;87.90
30730;BME280;17476;48.458;7.928;2023-03-22T03:49:52;99738.31;;;9.05;88.13
30730;BME280;17476;48.458;7.928;2023-03-22T03:52:18;99723.31;;;9.07;87.28
30730;BME280;17476;48.458;7.928;2023-03-22T03:54:49;99733.09;;;9.05;87.40
30730;BME280;17476;48.458;7.928;2023-03-22T03:57:15;99737.31;;;9.06;88.03
30730;BME280;17476;48.458;7.928;2023-03-22T03:59:41;99742.88;;;9.03;87.30
30730;BME280;17476;48.458;7.928;2023-03-22T04:02:07;99744.00;;;9.00;87.55
30730;BME280;17476;48.458;7.928;2023-03-22T04:04:33;99734.88;;;8.96;87.42
30730;BME280;17476;48.458;7.928;2023-03-22T04:07:02;99739.56;;;8.93;87.83
30730;BME280;17476;48.458;7.928;2023-03-22T04:09:35;99749.69;;;8.96;87.83
30730;BME280;17476;48.458;7.928;2023-03-22T04:12:01;99744.50;;;9.04;87.56
30730;BME280;17476;48.458;7.928;2023-03-22T04:14:27;99740.72;;;8.98;87.09
30730;BME280;17476;48.458;7.928;2023-03-22T04:16:54;99745.16;;;9.06;86.79
30730;BME280;17476;48.458;7.928;2023-03-22T04:19:20;99750.06;;;9.01;86.05
30730;BME280;17476;48.458;7.928;2023-03-22T04:21:47;99750.00;;;8.93;86.46
30730;BME280;17476;48.458;7.928;2023-03-22T04:24:13;99743.75;;;8.78;86.99
30730;BME280;17476;48.458;7.928;2023-03-22T04:26:40;99744.06;;;8.74;87.14
30730;BME280;17476;48.458;7.928;2023-03-22T04:29:06;99749.09;;;8.68;88.05
30730;BME280;17476;48.458;7.928;2023-03-22T04:31:33;99745.94;;;8.56;87.72
30730;BME280;17476;48.458;7.928;2023-03-22T04:34:00;99749.53;;;8.55;88.50
30730;BME280;17476;48.458;7.928;2023-03-22T04:36:32;99743.78;;;8.52;88.20
30730;BME280;17476;48.458;7.928;2023-03-22T04:39:03;99732.19;;;8.46;88.40
30730;BME280;17476;48.458;7.928;2023-03-22T04:41:31;99732.19;;;8.46;88.68
30730;BME280;17476;48.458;7.928;2023-03-22T04:43:57;99727.50;;;8.50;88.79
30730;BME280;17476;48.458;7.928;2023-03-22T04:46:32;99722.16;;;8.59;88.39
30730;BME280;17476;48.458;7.928;2023-03-22T04:48:59;99722.31;;;8.58;88.44
30730;BME280;17476;48.458;7.928;2023-03-22T04:51:26;99711.03;;;8.49;88.93
30730;BME280;17476;48.458;7.928;2023-03-22T04:53:53;99720.63;;;8.40;89.22
30730;BME280;17476;48.458;7.928;2023-03-22T04:56:19;99715.41;;;8.40;89.54
30730;BME280;17476;48.458;7.928;2023-03-22T04:58:46;99712.56;;;8.34;89.75
30730;BME280;17476;48.458;7.928;2023-03-22T05:01:14;99711.59;;;8.35;89.85
30730;BME280;17476;48.458;7.928;2023-03-22T05:03:41;99713.50;;;8.33;89.72
30730;BME280;17476;48.458;7.928;2023-03-22T05:06:08;99706.09;;;8.38;89.98
30730;BME280;17476;48.458;7.928;2023-03-22T05:08:34;99702.16;;;8.34;90.11
30730;BME280;17476;48.458;7.928;2023-03-22T05:11:12;99704.97;;;8.40;89.69
30730;BME280;17476;48.458;7.928;2023-03-22T05:13:39;99707.97;;;8.28;89.98
30730;BME280;17476;48.458;7.928;2023-03-22T05:16:05;99704.81;;;8.16;91.28
30730;BME280;17476;48.458;7.928;2023-03-22T05:18:32;99707.72;;;8.13;91.58
30730;BME280;17476;48.458;7.928;2023-03-22T05:20:59;99708.88;;;8.18;91.53
30730;BME280;17476;48.458;7.928;2023-03-22T05:23:25;99712.16;;;8.20;91.30
30730;BME280;17476;48.458;7.928;2023-03-22T05:25:52;99702.69;;;8.19;91.89
30730;BME280;17476;48.458;7.928;2023-03-22T05:28:20;99708.28;;;8.25;91.72
30730;BME280;17476;48.458;7.928;2023-03-22T05:30:47;99714.81;;;8.29;90.29
30730;BME280;17476;48.458;7.928;2023-03-22T05:33:14;99710.50;;;8.19;91.18
30730;BME280;17476;48.458;7.928;2023-03-22T05:35:42;99711.75;;;8.07;92.01
30730;BME280;17476;48.458;7.928;2023-03-22T05:38:08;99721.56;;;8.13;91.71
30730;BME280;17476;48.458;7.928;2023-03-22T05:40:35;99715.69;;;8.11;91.95
30730;BME280;17476;48.458;7.928;2023-03-22T05:43:01;99722.28;;;8.24;91.73
30730;BME280;17476;48.458;7.928;2023-03-22T05:45:27;99728.28;;;8.24;90.77
30730;BME280;17476;48.458;7.928;2023-03-22T05:47:52;99721.78;;;8.20;91.14
30730;BME280;17476;48.458;7.928;2023-03-22T05:50:22;99730.75;;;8.26;91.53
30730;BME280;17476;48.458;7.928;2023-03-22T05:52:49;99720.19;;;8.27;90.94
30730;BME280;17476;48.458;7.928;2023-03-22T05:55:17;99723.53;;;8.19;91.46
30730;BME280;17476;48.458;7.928;2023-03-22T05:57:44;99720.19;;;8.27;91.15
30730;BME280;17476;48.458;7.928;2023-03-22T06:00:14;99725.53;;;8.26;91.28
30730;BME280;17476;48.458;7.928;2023-03-22T06:02:46;99718.25;;;8.29;91.19
30730;BME280;17476;48.458;7.928;2023-03-22T06:05:15;99720.03;;;8.29;91.63
30730;BME280;17476;48.458;7.928;2023-03-22T06:07:42;99721.00;;;8.28;91.43
30730;BME280;17476;48.458;7.928;2023-03-22T06:10:11;99718.06;;;8.31;91.66
30730;BME280;17476;48.458;7.928;2023-03-22T06:12:38;99720.38;;;8.34;91.41
30730;BME280;17476;48.458;7.928;2023-03-22T06:15:05;99728.34;;;8.32;91.38
30730;BME280;17476;48.458;7.928;2023-03-22T06:17:31;99732.91;;;8.30;91.33
30730;BME280;17476;48.458;7.928;2023-03-22T06:19:57;99733.06;;;8.29;92.14
30730;BME280;17476;48.458;7.928;2023-03-22T06:22:23;99736.25;;;8.40;91.93
30730;BME280;17476;48.458;7.928;2023-03-22T06:24:49;99734.78;;;8.46;90.18
30730;BME280;17476;48.458;7.928;2023-03-22T06:27:16;99734.13;;;8.44;91.33
30730;BME280;17476;48.458;7.928;2023-03-22T06:29:43;99740.81;;;8.46;90.77
30730;BME280;17476;48.458;7.928;2023-03-22T06:32:12;99738.09;;;8.48;90.87
30730;BME280;17476;48.458;7.928;2023-03-22T06:34:37;99732.25;;;8.54;90.80
30730;BME280;17476;48.458;7.928;2023-03-22T06:37:03;99739.47;;;8.68;89.93
30730;BME280;17476;48.458;7.928;2023-03-22T06:39:29;99735.09;;;8.69;89.85
30730;BME280;17476;48.458;7.928;2023-03-22T06:41:55;99733.66;;;8.74;89.82
30730;BME280;17476;48.458;7.928;2023-03-22T06:44:21;99741.78;;;8.80;89.03
30730;BME280;17476;48.458;7.928;2023-03-22T06:46:47;99736.75;;;8.86;88.61
30730;BME280;17476;48.458;7.928;2023-03-22T06:49:13;99723.28;;;8.91;87.86
30730;BME280;17476;48.458;7.928;2023-03-22T06:51:39;99734.88;;;8.96;87.19
30730;BME280;17476;48.458;7.928;2023-03-22T06:54:05;99727.03;;;8.96;87.17
30730;BME280;17476;48.458;7.928;2023-03-22T06:56:31;99736.16;;;9.00;88.02
30730;BME280;17476;48.458;7.928;2023-03-22T06:58:56;99727.06;;;9.05;87.08
30730;BME280;17476;48.458;7.928;2023-03-22T07:01:23;99729.19;;;9.09;87.04
30730;BME280;17476;48.458;7.928;2023-03-22T07:03:50;99728.66;;;8.97;87.74
30730;BME280;17476;48.458;7.928;2023-03-22T07:06:16;99728.22;;;9.10;87.26
30730;BME280;17476;48.458;7.928;2023-03-22T07:08:41;99741.97;;;9.28;86.89
30730;BME280;17476;48.458;7.928;2023-03-22T07:11:07;99733.66;;;9.41;86.65
30730;BME280;17476;48.458;7.928;2023-03-22T07:13:33;99735.13;;;9.44;85.91
30730;BME280;17476;48.458;7.928;2023-03-22T07:16:00;99725.69;;;9.59;85.93
30730;BME280;17476;48.458;7.928;2023-03-22T07:18:27;99736.94;;;9.43;87.43
30730;BME280;17476;48.458;7.928;2023-03-22T07:20:54;99735.00;;;9.70;86.48
30730;BME280;17476;48.458;7.928;2023-03-22T07:23:20;99732.22;;;9.96;85.49
30730;BME280;17476;48.458;7.928;2023-03-22T07:25:46;99733.19;;;10.03;83.62
30730;BME280;17476;48.458;7.928;2023-03-22T07:28:13;99730.72;;;10.26;85.38
30730;BME280;17476;48.458;7.928;2023-03-22T07:30:40;99723.00;;;10.41;84.03
30730;BME280;17476;48.458;7.928;2023-03-22T07:33:08;99736.44;;;10.77;83.65
30730;BME280;17476;48.458;7.928;2023-03-22T07:35:36;99735.66;;;11.07;81.34
30730;BME280;17476;48.458;7.928;2023-03-22T07:38:03;99730.94;;;11.03;80.76
30730;BME280;17476;48.458;7.928;2023-03-22T07:40:30;99723.09;;;11.34;80.44
30730;BME280;17476;48.458;7.928;2023-03-22T07:42:56;99722.59;;;11.76;78.95
30730;BME280;17476;48.458;7.928;2023-03-22T07:45:24;99725.69;;;12.02;76.47
30730;BME280;17476;48.458;7.928;2023-03-22T07:47:50;99724.69;;;12.18;75.74
30730;BME280;17476;48.458;7.928;2023-03-22T07:50:16;99725.88;;;12.16;75.99
30730;BME280;17476;48.458;7.928;2023-03-22T07:52:43;99720.75;;;12.67;76.79
30730;BME280;17476;48.458;7.928;2023-03-22T07:55:12;99717.53;;;13.01;72.35
30730;BME280;17476;48.458;7.928;2023-03-22T07:57:38;99718.03;;;13.26;71.22
30730;BME280;17476;48.458;7.928;2023-03-22T08:00:07;99720.63;;;13.62;70.55
30730;BME280;17476;48.458;7.928;2023-03-22T08:02:35;99722.22;;;14.12;67.74
30730;BME280;17476;48.458;7.928;2023-03-22T08:05:02;99723.34;;;14.31;68.06
30730;BME280;17476;48.458;7.928;2023-03-22T08:07:28;99723.97;;;14.68;68.38
30730;BME280;17476;48.458;7.928;2023-03-22T08:09:54;99723.00;;;15.37;64.99
30730;BME280;17476;48.458;7.928;2023-03-22T08:12:21;99728.78;;;15.73;62.06
30730;BME280;17476;48.458;7.928;2023-03-22T08:14:47;99724.47;;;16.25;61.94
30730;BME280;17476;48.458;7.928;2023-03-22T08:17:16;99723.56;;;16.64;61.14
30730;BME280;17476;48.458;7.928;2023-03-22T08:19:43;99736.09;;;17.27;60.30
30730;BME280;17476;48.458;7.928;2023-03-22T08:22:10;99734.59;;;18.01;58.43
30730;BME280;17476;48.458;7.928;2023-03-22T08:24:36;99725.56;;;18.52;55.67
30730;BME280;17476;48.458;7.928;2023-03-22T08:27:03;99719.75;;;18.80;54.96
30730;BME280;17476;48.458;7.928;2023-03-22T08:29:30;99714.38;;;18.87;54.26
30730;BME280;17476;48.458;7.928;2023-03-22T08:31:56;99707.91;;;18.82;54.51
30730;BME280;17476;48.458;7.928;2023-03-22T08:34:29;99705.28;;;19.13;52.72
30730;BME280;17476;48.458;7.928;2023-03-22T08:36:55;99699.47;;;19.34;53.81
30730;BME280;17476;48.458;7.928;2023-03-22T08:39:21;99688.63;;;19.66;53.11
30730;BME280;17476;48.458;7.928;2023-03-22T08:41:48;99690.72;;;19.99;50.99
30730;BME280;17476;48.458;7.928;2023-03-22T08:44:15;99698.28;;;20.30;49.54
30730;BME280;17476;48.458;7.928;2023-03-22T08:46:41;99687.91;;;20.40;48.64
30730;BME280;17476;48.458;7.928;2023-03-22T08:49:12;99692.53;;;20.45;47.14
30730;BME280;17476;48.458;7.928;2023-03-22T08:51:42;99686.19;;;20.46;47.76
30730;BME280;17476;48.458;7.928;2023-03-22T08:54:08;99685.19;;;20.76;47.92
30730;BME280;17476;48.458;7.928;2023-03-22T08:56:34;99676.84;;;20.72;46.84
30730;BME280;17476;48.458;7.928;2023-03-22T08:59:06;99681.06;;;20.56;46.52
30730;BME280;17476;48.458;7.928;2023-03-22T09:01:34;99676.31;;;20.58;48.11
30730;BME280;17476;48.458;7.928;2023-03-22T09:04:02;99678.66;;;20.55;47.90
30730;BME280;17476;48.458;7.928;2023-03-22T09:06:28;99674.59;;;20.52;46.27
30730;BME280;17476;48.458;7.928;2023-03-22T09:08:54;99676.59;;;21.14;45.64
30730;BME280;17476;48.458;7.928;2023-03-22T09:11:22;99677.16;;;21.61;44.96
30730;BME280;17476;48.458;7.928;2023-03-22T09:13:49;99673.09;;;21.92;43.94
30730;BME280;17476;48.458;7.928;2023-03-22T09:16:18;99678.25;;;21.99;42.10
30730;BME280;17476;48.458;7.928;2023-03-22T09:18:43;99671.53;;;22.13;42.77
30730;BME280;17476;48.458;7.928;2023-03-22T09:21:10;99668.72;;;22.64;42.19
30730;BME280;17476;48.458;7.928;2023-03-22T09:23:37;99665.97;;;22.80;41.67
30730;BME280;17476;48.458;7.928;2023-03-22T09:26:06;99662.00;;;22.61;42.74
30730;BME280;17476;48.458;7.928;2023-03-22T09:28:34;99659.41;;;22.66;43.35
30730;BME280;17476;48.458;7.928;2023-03-22T09:31:06;99662.22;;;22.81;41.58
30730;BME280;17476;48.458;7.928;2023-03-22T09:33:33;99666.03;;;22.42;41.21
30730;BME280;17476;48.458;7.928;2023-03-22T09:36:00;99658.22;;;22.13;42.03
30730;BME280;17476;48.458;7.928;2023-03-22T09:38:26;99655.44;;;22.08;42.42
30730;BME280;17476;48.458;7.928;2023-03-22T09:41:01;99649.25;;;22.19;43.21
30730;BME280;17476;48.458;7.928;2023-03-22T09:43:33;99645.06;;;22.06;42.31
30730;BME280;17476;48.458;7.928;2023-03-22T09:46:02;99648.44;;;22.41;41.73
30730;BME280;17476;48.458;7.928;2023-03-22T09:48:32;99644.66;;;22.58;42.09
30730;BME280;17476;48.458;7.928;2023-03-22T09:51:03;99636.38;;;22.82;40.44
30730;BME280;17476;48.458;7.928;2023-03-22T09:53:31;99639.34;;;22.85;40.76
30730;BME280;17476;48.458;7.928;2023-03-22T10:05:35;99616.34;;;23.65;40.16
30730;BME280;17476;48.458;7.928;2023-03-22T10:10:58;99620.44;;;23.46;38.94
30730;BME280;17476;48.458;7.928;2023-03-22T10:13:51;99622.31;;;23.46;40.08
30730;BME280;17476;48.458;7.928;2023-03-22T10:16:31;99616.41;;;23.43;39.31
30730;BME280;17476;48.458;7.928;2023-03-22T10:19:15;99620.13;;;23.42;40.25
30730;BME280;17476;48.458;7.928;2023-03-22T10:21:49;99612.72;;;23.50;38.34
30730;BME280;17476;48.458;7.928;2023-03-22T10:24:25;99612.06;;;23.32;40.88
30730;BME280;17476;48.458;7.928;2023-03-22T10:26:53;99612.09;;;23.75;39.57
30730;BME280;17476;48.458;7.928;2023-03-22T10:29:37;99614.50;;;24.18;38.53
30730;BME280;17476;48.458;7.928;2023-03-22T10:32:20;99609.38;;;24.12;39.13
30730;BME280;17476;48.458;7.928;2023-03-22T10:34:50;99618.31;;;24.38;38.36
30730;BME280;17476;48.458;7.928;2023-03-22T10:37:29;99606.66;;;24.69;38.24
30730;BME280;17476;48.458;7.928;2023-03-22T10:40:02;99606.66;;;24.69;37.52
30730;BME280;17476;48.458;7.928;2023-03-22T10:42:37;99595.13;;;24.64;38.73
30730;BME280;17476;48.458;7.928;2023-03-22T10:45:12;99603.69;;;24.71;38.43
30730;BME280;17476;48.458;7.928;2023-03-22T10:47:55;99599.97;;;24.77;38.32
30730;BME280;17476;48.458;7.928;2023-03-22T10:50:29;99595.72;;;25.01;38.78
30730;BME280;17476;48.458;7.928;2023-03-22T10:53:45;99589.53;;;25.82;36.64
30730;BME280;17476;48.458;7.928;2023-03-22T10:56:16;99590.09;;;26.44;35.47
30730;BME280;17476;48.458;7.928;2023-03-22T10:58:43;99583.69;;;27.24;34.94
30730;BME280;17476;48.458;7.928;2023-03-22T11:01:12;99584.41;;;27.58;31.99
30730;BME280;17476;48.458;7.928;2023-03-22T11:03:42;99578.41;;;27.08;30.92
30730;BME280;17476;48.458;7.928;2023-03-22T11:06:16;99575.28;;;27.30;31.81
30730;BME280;17476;48.458;7.928;2023-03-22T11:08:59;99579.16;;;26.80;32.42
30730;BME280;17476;48.458;7.928;2023-03-22T11:14:15;99572.78;;;26.16;34.21
30730;BME280;17476;48.458;7.928;2023-03-22T11:16:58;99578.16;;;26.11;33.09
30730;BME280;17476;48.458;7.928;2023-03-22T11:19:38;99573.28;;;26.23;34.61
30730;BME280;17476;48.458;7.928;2023-03-22T11:22:38;99575.44;;;26.21;32.02
30730;BME280;17476;48.458;7.928;2023-03-22T11:35:30;99558.75;;;25.59;34.54
30730;BME280;17476;48.458;7.928;2023-03-22T11:37:56;99560.94;;;25.47;34.31
30730;BME280;17476;48.458;7.928;2023-03-22T11:40:28;99555.50;;;25.78;33.98
30730;BME280;17476;48.458;7.928;2023-03-22T11:43:15;99554.44;;;25.74;34.58
30730;BME280;17476;48.458;7.928;2023-03-22T11:45:43;99548.72;;;26.01;34.37
30730;BME280;17476;48.458;7.928;2023-03-22T11:48:25;99545.22;;;26.00;33.35
30730;BME280;17476;48.458;7.928;2023-03-22T11:50:55;99551.16;;;25.97;34.52
30730;BME280;17476;48.458;7.928;2023-03-22T11:53:25;99554.31;;;26.09;32.78
30730;BME280;17476;48.458;7.928;2023-03-22T11:55:54;99546.19;;;25.55;34.18
30730;BME280;17476;48.458;7.928;2023-03-22T11:58:27;99540.09;;;25.09;35.62
30730;BME280;17476;48.458;7.928;2023-03-22T12:00:59;99539.03;;;25.15;34.49
30730;BME280;17476;48.458;7.928;2023-03-22T12:03:37;99529.63;;;25.27;34.27
30730;BME280;17476;48.458;7.928;2023-03-22T12:06:23;99531.97;;;25.75;34.71
30730;BME280;17476;48.458;7.928;2023-03-22T12:08:55;99522.47;;;25.98;35.03
30730;BME280;17476;48.458;7.928;2023-03-22T12:11:46;99522.81;;;26.40;32.63
30730;BME280;17476;48.458;7.928;2023-03-22T12:14:32;99520.84;;;26.56;32.29
30730;BME280;17476;48.458;7.928;2023-03-22T12:17:35;99511.66;;;26.18;32.59
30730;BME280;17476;48.458;7.928;2023-03-22T12:20:46;99513.41;;;25.89;33.17
30730;BME280;17476;48.458;7.928;2023-03-22T12:23:19;99510.59;;;26.14;33.15
30730;BME280;17476;48.458;7.928;2023-03-22T12:26:03;99500.66;;;26.64;33.89
30730;BME280;17476;48.458;7.928;2023-03-22T12:31:26;99497.84;;;26.79;32.57
30730;BME280;17476;48.458;7.928;2023-03-22T12:33:58;99499.25;;;26.72;31.61
30730;BME280;17476;48.458;7.928;2023-03-22T12:36:37;99494.69;;;27.06;32.32
30730;BME280;17476;48.458;7.928;2023-03-22T12:39:12;99480.88;;;27.42;31.46
30730;BME280;17476;48.458;7.928;2023-03-22T12:41:47;99480.22;;;27.79;31.97
30730;BME280;17476;48.458;7.928;2023-03-22T12:47:03;99479.28;;;28.78;29.66
30730;BME280;17476;48.458;7.928;2023-03-22T12:49:47;99471.06;;;28.55;28.71
30730;BME280;17476;48.458;7.928;2023-03-22T12:52:45;99473.19;;;28.21;29.71
30730;BME280;17476;48.458;7.928;2023-03-22T12:55:35;99465.47;;;27.95;29.03
30730;BME280;17476;48.458;7.928;2023-03-22T12:58:05;99463.50;;;27.82;30.79
30730;BME280;17476;48.458;7.928;2023-03-22T13:00:47;99459.16;;;27.62;31.11
30730;BME280;17476;48.458;7.928;2023-03-22T13:11:23;99450.25;;;26.90;30.77
30730;BME280;17476;48.458;7.928;2023-03-22T13:13:49;99444.34;;;26.88;30.55
30730;BME280;17476;48.458;7.928;2023-03-22T13:16:19;99434.72;;;27.40;29.95
30730;BME280;17476;48.458;7.928;2023-03-22T13:21:21;99425.56;;;27.84;30.90
30730;BME280;17476;48.458;7.928;2023-03-22T13:32:29;99423.03;;;26.38;31.76
30730;BME280;17476;48.458;7.928;2023-03-22T13:34:56;99416.47;;;26.21;32.36
30730;BME280;17476;48.458;7.928;2023-03-22T13:37:46;99413.28;;;25.69;32.12
30730;BME280;17476;48.458;7.928;2023-03-22T13:40:31;99423.88;;;25.35;33.37
30730;BME280;17476;48.458;7.928;2023-03-22T13:43:42;99424.50;;;24.76;32.77
30730;BME280;17476;48.458;7.928;2023-03-22T14:02:22;99394.78;;;23.96;35.29
30730;BME280;17476;48.458;7.928;2023-03-22T14:05:06;99395.31;;;23.93;35.26
30730;BME280;17476;48.458;7.928;2023-03-22T14:07:46;99400.09;;;23.91;34.42
30730;BME280;17476;48.458;7.928;2023-03-22T14:10:25;99397.41;;;23.65;36.45
30730;BME280;17476;48.458;7.928;2023-03-22T14:13:01;99396.13;;;24.04;34.92
30730;BME280;17476;48.458;7.928;2023-03-22T14:15:33;99379.59;;;24.73;34.14
30730;BME280;17476;48.458;7.928;2023-03-22T14:18:22;99376.78;;;25.24;32.74
30730;BME280;17476;48.458;7.928;2023-03-22T14:20:56;99370.88;;;25.32;34.03
30730;BME280;17476;48.458;7.928;2023-03-22T14:23:32;99377.50;;;25.45;31.38
30730;BME280;17476;48.458;7.928;2023-03-22T14:26:14;99377.53;;;25.40;30.63
30730;BME280;17476;48.458;7.928;2023-03-22T14:28:40;99376.97;;;25.43;31.52
30730;BME280;17476;48.458;7.928;2023-03-22T14:31:25;99373.59;;;25.27;31.16
30730;BME280;17476;48.458;7.928;2023-03-22T14:33:52;99373.38;;;25.13;30.26
30730;BME280;17476;48.458;7.928;2023-03-22T14:36:19;99369.66;;;24.89;30.77
30730;BME280;17476;48.458;7.928;2023-03-22T14:38:54;99372.88;;;24.75;30.92
30730;BME280;17476;48.458;7.928;2023-03-22T14:41:27;99364.84;;;24.86;31.07
30730;BME280;17476;48.458;7.928;2023-03-22T14:43:59;99362.19;;;24.75;31.49
30730;BME280;17476;48.458;7.928;2023-03-22T14:46:36;99356.88;;;24.55;32.35
30730;BME280;17476;48.458;7.928;2023-03-22T14:49:16;99362.75;;;24.62;31.87
30730;BME280;17476;48.458;7.928;2023-03-22T14:51:45;99354.91;;;24.91;31.85
30730;BME280;17476;48.458;7.928;2023-03-22T14:54:19;99357.84;;;25.00;31.29
30730;BME280;17476;48.458;7.928;2023-03-22T14:56:48;99357.03;;;25.10;31.50
30730;BME280;17476;48.458;7.928;2023-03-22T14:59:19;99356.28;;;24.89;33.08
30730;BME280;17476;48.458;7.928;2023-03-22T15:01:52;99355.72;;;25.07;30.63
30730;BME280;17476;48.458;7.928;2023-03-22T15:04:21;99356.53;;;24.92;29.69
30730;BME280;17476;48.458;7.928;2023-03-22T15:06:57;99360.78;;;24.98;29.64
30730;BME280;17476;48.458;7.928;2023-03-22T15:09:24;99347.38;;;25.19;31.61
30730;BME280;17476;48.458;7.928;2023-03-22T15:11:56;99347.34;;;25.29;30.50
30730;BME280;17476;48.458;7.928;2023-03-22T15:14:26;99340.13;;;25.19;30.95
30730;BME280;17476;48.458;7.928;2023-03-22T15:16:52;99336.63;;;25.24;30.50